Kaler, Kentucky
Current Conditions -  °F | °C
As of 5:15 PM on Wednesday 26 Nov 2014 (Local Time) from KM25 Reporting Station
Light Rain Light Rain  
Wind Chill: 37°   Ceiling: 2200
Heat Index: 37°   Visibility: 10mi
Dew Point: 36°   Wind: 0mph
Humidity: 93%   Direction: NA
Pressure: 30.02"   Gusts: NA
Location:  36.8496°N, 88.6894°W
Report Text: KM25 262315Z AUTO 00000KT 10SM -RA SCT011 BKN022 OVC028 03/02 A3002 RMK AO2
Loading
Personal Weather Stations






























Interactive Weather Map New forecast layout! Learn more

10-Day Weather Forecast

Advertisements
Track Severe Weather on mobile